Overview Statistics Trail Chart Weather Telemetry Raw packets
 

This is the latest recevied weather packets stored in our database for station/object SV9TNF-57. If no packets are shown the sender has not sent any weather packets the latest 10 day(s).

<< 79 80 81 82 83 84 85 >>
Time Temp. Humidity Pressure Rain* Wind** Luminosity Snow
1788086236 28.33° C 58% 996.5 hPa 0 mm 5.36 m/s, 177° - -
1788085936 28.33° C 59% 996.5 hPa 0 mm 0.45 m/s, 281° - -
1788085636 27.78° C 61% 996.6 hPa 0 mm 5.36 m/s, 222° - -
1788085337 28.33° C 60% 996.6 hPa 0 mm 3.58 m/s, 248° - -
1788085036 28.33° C 58% 996.8 hPa 0 mm 4.92 m/s, 155° - -
1788084736 28.33° C 61% 996.9 hPa 0 mm 4.02 m/s, 252° - -
1788084436 28.33° C 58% 996.7 hPa 0 mm 6.71 m/s, 181° - -
1788084136 28.33° C 60% 996.7 hPa 0 mm 4.92 m/s, 268° - -
1788083836 27.78° C 60% 996.8 hPa 0 mm 11.18 m/s, 188° - -
1788083535 27.78° C 60% 996.8 hPa 0 mm 2.68 m/s, 206° - -
1788083236 27.78° C 56% 996.9 hPa 0 mm 12.07 m/s, 167° - -
1788082935 28.33° C 57% 996.8 hPa 0 mm 11.18 m/s, 184° - -
1788082635 27.78° C 58% 997 hPa 0 mm 0 m/s - -
1788082336 27.78° C 61% 997 hPa 0 mm 8.49 m/s, 167° - -
1788082035 27.78° C 58% 996.9 hPa 0 mm 6.71 m/s, 157° - -
1788081735 27.78° C 59% 997 hPa 0 mm 9.39 m/s, 178° - -
1788081435 27.78° C 60% 996.8 hPa 0 mm 0.89 m/s, 192° - -
1788081135 27.78° C 57% 996.9 hPa 0 mm 9.39 m/s, 187° - -
1788080835 27.78° C 61% 997.3 hPa 0 mm 9.83 m/s, 153° - -
1788080535 27.78° C 61% 997.1 hPa 0 mm 12.07 m/s, 211° - -
1788080235 27.78° C 61% 996.8 hPa 0 mm 2.68 m/s, 213° - -
1788079935 28.33° C 59% 997 hPa 0 mm 5.36 m/s, 141° - -
1788079635 28.33° C 59% 996.7 hPa 0 mm 6.71 m/s, 172° - -
1788079334 27.78° C 60% 996.8 hPa 0 mm 0.89 m/s, 289° - -
1788079034 27.22° C 64% 996.8 hPa 0 mm 9.83 m/s, 179° - -

* Rain latest hour (hover to see other rain measurements)
** Current wind speed in m/s (hover to see current wind gust speed)